Time;durP1;ratioP1;P1;durP2;ratioP2;P2;SDS_P1;SDS_P2;PMS_P1;PMS_P2;Temp;Humidity;BMP_temperature;BMP_pressure;BME280_temperature;BME280_humidity;BME280_pressure;Samples;Min_cycle;Max_cycle;Signal;HPM_P1;HPM_P2
2022/12/23 00:00:07;;;;;;;25.02;10.90;;;;;;;9.26;100.00;100226.75;5051347;28;20047;-73
2022/12/23 00:02:32;;;;;;;20.80;8.02;;;;;;;9.27;100.00;100239.03;5051327;28;20437;-73
2022/12/23 00:04:58;;;;;;;23.10;9.55;;;;;;;9.26;100.00;100243.53;5051275;28;20043;-73
2022/12/23 00:07:23;;;;;;;20.75;9.40;;;;;;;9.27;100.00;100239.03;5051303;28;20090;-73
2022/12/23 00:09:49;;;;;;;24.15;12.50;;;;;;;9.26;100.00;100240.06;5051331;28;20119;-73
2022/12/23 00:15:04;;;;;;;24.40;9.43;;;;;;;9.25;100.00;100243.72;5051077;28;20079;-73
2022/12/23 00:17:30;;;;;;;23.33;10.32;;;;;;;9.27;100.00;100249.66;5051053;28;20032;-73
2022/12/23 00:19:55;;;;;;;23.40;10.23;;;;;;;9.25;100.00;100252.53;5051043;28;20029;-73
2022/12/23 00:23:03;;;;;;;22.00;9.90;;;;;;;9.29;100.00;100256.41;5016502;28;20040;-73
2022/12/23 00:25:06;;;;;;;23.92;10.70;;;;;;;9.30;100.00;100263.41;5050297;28;20040;-73
2022/12/23 00:27:31;;;;;;;23.85;9.90;;;;;;;9.31;100.00;100266.88;5050956;28;20037;-73
2022/12/23 00:29:57;;;;;;;23.10;11.43;;;;;;;9.30;100.00;100254.56;5050976;28;20120;-73
2022/12/23 00:32:22;;;;;;;25.25;11.73;;;;;;;9.22;100.00;100250.25;5033013;28;20147;-73
2022/12/23 00:34:47;;;;;;;25.08;13.40;;;;;;;9.31;100.00;100261.56;5050813;28;20029;-73
2022/12/23 00:37:12;;;;;;;20.45;11.38;;;;;;;9.32;100.00;100261.34;5050630;28;20480;-73
2022/12/23 00:45:16;;;;;;;27.80;12.43;;;;;;;9.33;100.00;100275.47;5050639;28;20036;-73
2022/12/23 00:50:28;;;;;;;37.40;14.70;;;;;;;9.31;100.00;100265.03;5050788;28;20055;-73
2022/12/23 00:52:54;;;;;;;25.90;12.23;;;;;;;9.30;100.00;100270.53;5050310;28;20044;-73
2022/12/23 00:55:20;;;;;;;25.65;11.00;;;;;;;9.32;100.00;100273.81;5050344;28;20036;-73
2022/12/23 00:57:45;;;;;;;22.08;11.00;;;;;;;9.34;100.00;100287.75;5032445;28;20476;-72
2022/12/23 01:00:11;;;;;;;21.45;10.30;;;;;;;9.30;100.00;100283.84;5050118;28;20060;-73
2022/12/23 01:05:36;;;;;;;25.80;12.70;;;;;;;9.34;100.00;100301.06;5050473;28;20043;-73
2022/12/23 01:08:06;;;;;;;21.40;10.55;;;;;;;9.33;100.00;100299.44;5050109;28;20033;-73
2022/12/23 01:10:34;;;;;;;24.88;10.65;;;;;;;9.33;100.00;100294.94;5050005;28;20127;-72
2022/12/23 01:13:00;;;;;;;22.20;9.35;;;;;;;9.29;100.00;100295.53;5049987;28;20033;-72
2022/12/23 01:15:25;;;;;;;23.10;10.70;;;;;;;9.31;100.00;100301.47;5049883;28;20029;-72
2022/12/23 01:17:51;;;;;;;25.42;11.52;;;;;;;9.33;100.00;100304.75;5049950;28;20040;-73
2022/12/23 01:20:16;;;;;;;23.00;12.15;;;;;;;9.32;100.00;100301.25;5049930;28;20037;-73
2022/12/23 01:22:41;;;;;;;28.17;12.48;;;;;;;9.33;100.00;100299.44;5049773;28;20033;-73
2022/12/23 01:25:07;;;;;;;22.77;10.30;;;;;;;9.33;100.00;100307.41;5031612;28;20104;-73
2022/12/23 01:27:33;;;;;;;24.65;10.18;;;;;;;9.29;100.00;100306.97;5049784;28;20025;-73
2022/12/23 01:29:58;;;;;;;29.38;11.32;;;;;;;9.29;100.00;100299.00;5049775;28;20498;-73
2022/12/23 01:32:23;;;;;;;23.55;11.80;;;;;;;9.31;100.00;100306.78;5049895;28;20044;-73
2022/12/23 01:34:49;;;;;;;24.27;11.30;;;;;;;9.30;100.00;100300.66;5049874;28;20517;-67
2022/12/23 01:37:14;;;;;;;22.67;9.57;;;;;;;9.32;100.00;100308.41;5049673;28;20079;-67
2022/12/23 01:39:39;;;;;;;27.20;13.05;;;;;;;9.30;100.00;100311.31;5049507;28;20071;-67
2022/12/23 01:45:01;;;;;;;28.20;12.77;;;;;;;9.30;100.00;100313.97;5049867;28;20036;-67
2022/12/23 01:47:52;;;;;;;25.80;10.93;;;;;;;9.29;100.00;100311.50;5049451;28;20060;-67
2022/12/23 01:50:20;;;;;;;23.13;11.20;;;;;;;9.29;100.00;100311.50;5049299;28;20020;-68
2022/12/23 01:53:28;;;;;;;28.45;12.68;;;;;;;9.32;100.00;100311.09;5049357;28;20139;-68
2022/12/23 01:55:59;;;;;;;25.02;10.77;;;;;;;9.31;100.00;100320.09;5049395;28;20040;-67
2022/12/23 01:58:28;;;;;;;29.40;11.73;;;;;;;9.32;100.00;100327.06;5049329;28;20024;-67
2022/12/23 02:03:43;;;;;;;21.73;10.30;;;;;;;9.31;100.00;100331.56;5049364;28;20067;-67
2022/12/23 02:09:32;;;;;;;24.20;10.95;;;;;;;9.31;100.00;100344.88;5048841;28;20040;-67
2022/12/23 02:12:32;;;;;;;23.02;9.55;;;;;;;9.31;100.00;100352.03;5045140;28;20068;-67
2022/12/23 02:18:31;;;;;;;23.17;9.98;;;;;;;9.30;100.00;100348.56;5049488;28;20044;-68
2022/12/23 02:21:20;;;;;;;26.83;10.55;;;;;;;9.27;100.00;100362.25;5049164;28;20021;-67
2022/12/23 02:24:06;;;;;;;24.73;11.50;;;;;;;9.31;100.00;100352.03;5048857;28;20099;-67
2022/12/23 02:26:54;;;;;;;28.25;10.63;;;;;;;9.28;100.00;100353.25;5049053;28;20032;-67
2022/12/23 02:29:44;;;;;;;19.63;10.07;;;;;;;9.30;100.00;100358.34;5049138;28;20089;-67
2022/12/23 02:32:27;;;;;;;20.20;9.65;;;;;;;9.29;100.00;100365.53;5049048;28;20487;-67
2022/12/23 02:35:31;;;;;;;23.27;10.55;;;;;;;9.30;100.00;100355.69;5049182;28;20025;-67
2022/12/23 02:38:10;;;;;;;21.10;9.73;;;;;;;9.31;100.00;100368.00;5049065;28;20406;-67
2022/12/23 02:41:00;;;;;;;20.65;9.30;;;;;;;9.30;100.00;100374.31;5049004;28;20039;-67
2022/12/23 02:43:27;;;;;;;23.42;9.45;;;;;;;9.30;100.00;100382.31;5048808;28;20503;-68
2022/12/23 02:46:16;;;;;;;21.80;10.18;;;;;;;9.31;100.00;100390.09;5048920;28;20029;-67
2022/12/23 02:48:46;;;;;;;19.63;9.27;;;;;;;9.29;100.00;100393.97;5048827;28;20039;-67
2022/12/23 02:51:13;;;;;;;21.05;9.75;;;;;;;9.30;100.00;100392.94;5048921;28;20028;-67
2022/12/23 02:54:01;;;;;;;19.42;8.48;;;;;;;9.30;100.00;100407.09;5048534;28;20029;-67
2022/12/23 02:56:30;;;;;;;22.40;9.02;;;;;;;9.29;100.00;100407.28;5048876;28;20033;-67
2022/12/23 02:59:01;;;;;;;23.17;10.32;;;;;;;9.27;100.00;100404.00;5048557;28;20121;-68
2022/12/23 03:01:29;;;;;;;21.70;10.75;;;;;;;9.32;100.00;100414.88;5048840;28;20021;-67
2022/12/23 03:03:55;;;;;;;18.55;8.93;;;;;;;9.32;100.00;100423.66;5048547;28;20027;-67
2022/12/23 03:06:31;;;;;;;21.35;10.65;;;;;;;9.32;100.00;100421.00;5048784;28;20029;-67
2022/12/23 03:08:58;;;;;;;22.35;9.40;;;;;;;9.30;100.00;100417.75;5048726;28;20029;-67
2022/12/23 03:11:38;;;;;;;20.95;8.60;;;;;;;9.29;100.00;100404.63;5048459;28;20020;-67
2022/12/23 03:14:09;;;;;;;20.92;8.50;;;;;;;9.31;100.00;100413.25;5048728;28;20472;-67
2022/12/23 03:16:56;;;;;;;16.98;7.88;;;;;;;9.29;100.00;100415.28;5048780;28;20071;-67
2022/12/23 03:19:37;;;;;;;18.85;7.82;;;;;;;9.29;100.00;100404.63;5048605;28;20047;-67
2022/12/23 03:22:24;;;;;;;15.93;6.63;;;;;;;9.28;100.00;100409.13;5050995;28;20079;-67
2022/12/23 03:25:02;;;;;;;20.75;9.20;;;;;;;9.26;100.00;100402.38;5051966;28;20456;-67
2022/12/23 03:28:03;;;;;;;18.48;8.25;;;;;;;9.29;100.00;100402.78;5052086;28;20033;-67
2022/12/23 03:30:32;;;;;;;19.67;8.57;;;;;;;9.28;100.00;100405.66;5026795;28;20076;-67
2022/12/23 03:33:14;;;;;;;17.58;7.78;;;;;;;9.25;100.00;100409.53;5051976;28;20029;-67
2022/12/23 03:35:44;;;;;;;21.75;10.55;;;;;;;9.25;100.00;100417.53;5051891;28;20028;-67
2022/12/23 03:38:13;;;;;;;19.40;8.93;;;;;;;9.23;100.00;100406.25;5051924;28;20036;-67
2022/12/23 03:40:46;;;;;;;17.63;7.63;;;;;;;9.23;100.00;100411.56;5051767;28;20021;-67
2022/12/23 03:44:04;;;;;;;15.27;5.75;;;;;;;9.24;100.00;100407.06;5051684;28;20076;-67
2022/12/23 03:46:37;;;;;;;17.45;7.78;;;;;;;9.20;100.00;100404.81;5047255;28;20033;-67
2022/12/23 03:49:10;;;;;;;21.25;8.27;;;;;;;9.21;100.00;100419.75;5051479;28;20426;-67
2022/12/23 03:51:47;;;;;;;17.05;7.22;;;;;;;9.19;100.00;100410.31;5051662;28;20056;-67
2022/12/23 03:54:21;;;;;;;21.00;8.95;;;;;;;9.21;100.00;100410.94;5051583;28;20563;-67
2022/12/23 03:56:56;;;;;;;18.05;8.20;;;;;;;9.18;100.00;100406.84;5051480;28;20675;-67
2022/12/23 03:59:29;;;;;;;19.92;8.45;;;;;;;9.17;100.00;100405.22;5051482;28;20104;-67
2022/12/23 04:02:27;;;;;;;19.50;8.50;;;;;;;9.21;100.00;100411.75;5051488;28;20028;-67
2022/12/23 04:04:52;;;;;;;28.33;9.45;;;;;;;9.20;100.00;100415.44;5021612;28;20040;-68
2022/12/23 04:07:22;;;;;;;17.20;8.68;;;;;;;9.19;100.00;100420.94;5051360;28;20033;-67
2022/12/23 04:09:50;;;;;;;18.52;8.13;;;;;;;9.20;100.00;100418.09;5051171;28;20029;-67
2022/12/23 04:12:16;;;;;;;21.58;9.85;;;;;;;9.21;100.00;100427.72;5051195;28;20044;-67
2022/12/23 04:14:47;;;;;;;19.42;8.48;;;;;;;9.20;100.00;100426.09;5051104;28;20029;-67
2022/12/23 04:17:13;;;;;;;18.77;7.53;;;;;;;9.17;100.00;100431.81;5051162;28;20056;-67
2022/12/23 04:19:38;;;;;;;19.67;8.32;;;;;;;9.21;100.00;100437.53;5051127;28;20071;-67
2022/12/23 04:22:03;;;;;;;16.85;8.13;;;;;;;9.22;100.00;100433.84;5051004;28;20064;-67
2022/12/23 04:24:29;;;;;;;15.93;7.05;;;;;;;9.21;100.00;100433.03;5051138;28;20037;-67
2022/12/23 04:26:54;;;;;;;21.35;8.07;;;;;;;9.22;100.00;100439.19;5050979;28;20553;-67
2022/12/23 04:29:19;;;;;;;17.42;7.07;;;;;;;9.20;100.00;100442.06;5050853;28;20033;-67
2022/12/23 04:31:45;;;;;;;17.80;7.68;;;;;;;9.21;100.00;100446.34;5050516;28;20021;-67
2022/12/23 04:34:10;;;;;;;19.08;7.05;;;;;;;9.21;100.00;100462.31;5050773;28;20472;-67
2022/12/23 04:36:36;;;;;;;17.30;7.07;;;;;;;9.23;100.00;100461.31;5050781;28;20021;-67
2022/12/23 04:39:01;;;;;;;17.08;7.00;;;;;;;9.21;100.00;100458.84;5050615;28;20119;-67
2022/12/23 04:41:26;;;;;;;18.88;7.68;;;;;;;9.21;100.00;100461.50;5050413;28;20091;-67
2022/12/23 04:43:52;;;;;;;22.40;9.32;;;;;;;9.20;100.00;100462.53;5050655;28;20033;-67
2022/12/23 04:46:17;;;;;;;17.42;8.40;;;;;;;9.19;100.00;100461.69;5050579;28;20102;-67
2022/12/23 04:48:42;;;;;;;21.15;9.60;;;;;;;9.12;100.00;100452.88;5050431;28;20036;-67
2022/12/23 04:51:08;;;;;;;20.35;8.57;;;;;;;9.12;100.00;100452.06;5050363;28;20021;-67
2022/12/23 04:53:35;;;;;;;18.95;7.85;;;;;;;9.11;100.00;100451.19;5050176;28;20040;-67
2022/12/23 04:56:00;;;;;;;22.63;9.35;;;;;;;9.17;100.00;100457.59;5050424;28;20110;-68
2022/12/23 04:58:25;;;;;;;21.88;10.55;;;;;;;9.16;100.00;100447.97;5050306;28;20068;-67
2022/12/23 05:01:02;;;;;;;21.15;8.52;;;;;;;9.15;100.00;100439.16;5050238;28;20040;-67
2022/12/23 05:03:27;;;;;;;21.83;9.82;;;;;;;9.18;100.00;100440.59;5050252;28;20029;-67
2022/12/23 05:05:53;;;;;;;22.30;9.00;;;;;;;9.12;100.00;100428.09;5050222;28;20025;-67
2022/12/23 05:08:18;;;;;;;24.30;9.75;;;;;;;9.16;100.00;100424.84;5049989;28;20131;-67
2022/12/23 05:10:44;;;;;;;22.33;10.18;;;;;;;9.14;100.00;100429.56;5050234;28;20024;-67
2022/12/23 05:13:09;;;;;;;21.42;9.13;;;;;;;9.17;100.00;100431.81;5049996;28;20642;-67
2022/12/23 05:15:35;;;;;;;20.10;8.68;;;;;;;9.15;100.00;100420.53;5049885;28;20029;-68
2022/12/23 05:18:00;;;;;;;20.60;8.88;;;;;;;9.14;100.00;100423.38;5049870;28;20036;-67
2022/12/23 05:20:25;;;;;;;19.73;8.70;;;;;;;9.17;100.00;100437.13;5049812;28;20116;-67
2022/12/23 05:22:51;;;;;;;19.17;7.93;;;;;;;9.16;100.00;100446.13;5049696;28;20063;-67
2022/12/23 05:25:16;;;;;;;20.10;10.30;;;;;;;9.17;100.00;100453.09;5049838;28;20049;-67
2022/12/23 05:27:41;;;;;;;23.98;9.40;;;;;;;9.17;100.00;100461.06;5049704;28;20468;-68
2022/12/23 05:30:08;;;;;;;22.45;9.40;;;;;;;9.17;100.00;100468.25;5049740;28;20087;-67
2022/12/23 05:32:33;;;;;;;25.13;10.75;;;;;;;9.16;100.00;100477.22;5049863;28;20089;-68
2022/12/23 05:34:58;;;;;;;22.35;9.32;;;;;;;9.14;100.00;100474.78;5049563;28;20469;-68
2022/12/23 05:37:24;;;;;;;24.27;9.82;;;;;;;9.12;100.00;100476.00;5049652;28;20033;-68
2022/12/23 05:39:49;;;;;;;25.48;10.35;;;;;;;9.13;100.00;100486.41;5049657;28;20033;-68
2022/12/23 05:42:18;;;;;;;23.73;10.05;;;;;;;9.13;100.00;100474.97;5049512;28;20078;-67
2022/12/23 05:44:44;;;;;;;25.48;10.52;;;;;;;9.13;100.00;100478.44;5048778;28;20116;-67
2022/12/23 05:47:09;;;;;;;24.98;11.43;;;;;;;9.03;100.00;100472.66;5049492;28;20603;-67
2022/12/23 05:49:34;;;;;;;27.75;12.07;;;;;;;9.11;100.00;100488.44;5049487;28;20056;-68
2022/12/23 05:51:59;;;;;;;23.23;11.75;;;;;;;9.10;100.00;100494.81;5049874;28;20033;-67
2022/12/23 05:54:25;;;;;;;25.38;10.15;;;;;;;9.09;100.00;100493.16;5049283;28;20037;-67
2022/12/23 05:56:50;;;;;;;27.60;12.82;;;;;;;9.08;100.00;100488.84;5049350;28;20418;-68
2022/12/23 05:59:15;;;;;;;28.92;12.98;;;;;;;9.05;100.00;100486.59;5031348;28;20477;-67
2022/12/23 06:01:41;;;;;;;27.15;12.43;;;;;;;9.09;100.00;100479.88;5049203;28;20167;-67
2022/12/23 06:04:06;;;;;;;24.75;12.65;;;;;;;9.09;100.00;100471.88;5049372;28;20036;-67
2022/12/23 06:06:31;;;;;;;25.35;11.50;;;;;;;9.08;100.00;100470.22;5049238;28;20032;-67
2022/12/23 06:08:57;;;;;;;26.80;11.48;;;;;;;9.03;100.00;100453.22;5049265;28;20491;-67
2022/12/23 06:11:22;;;;;;;49.10;13.57;;;;;;;9.03;100.00;100462.00;5049259;28;20442;-68
2022/12/23 06:13:47;;;;;;;27.10;12.30;;;;;;;9.02;100.00;100444.41;5049073;28;20380;-68
2022/12/23 06:16:13;;;;;;;26.35;12.05;;;;;;;9.05;100.00;100453.84;5049178;28;20396;-67
2022/12/23 06:18:38;;;;;;;24.08;9.90;;;;;;;9.06;100.00;100455.47;5049180;28;20120;-67
2022/12/23 06:21:04;;;;;;;27.80;12.50;;;;;;;9.03;100.00;100454.03;5049091;28;20029;-67
2022/12/23 06:23:29;;;;;;;28.00;11.07;;;;;;;9.03;100.00;100447.91;5048993;28;20037;-68
2022/12/23 06:26:01;;;;;;;23.25;9.35;;;;;;;9.01;100.00;100448.06;5048991;28;20028;-68
2022/12/23 06:28:28;;;;;;;25.25;11.60;;;;;;;9.06;100.00;100450.16;5049062;28;20037;-68
2022/12/23 06:30:54;;;;;;;32.45;12.82;;;;;;;9.06;100.00;100444.84;5048955;28;20029;-68
2022/12/23 06:33:20;;;;;;;23.85;11.10;;;;;;;9.06;100.00;100445.66;5031138;28;20025;-67
2022/12/23 06:35:46;;;;;;;26.88;11.57;;;;;;;9.03;100.00;100447.91;5048793;28;20037;-68
2022/12/23 06:38:11;;;;;;;22.42;8.43;;;;;;;9.05;100.00;100453.84;5048944;28;20139;-68
2022/12/23 06:40:37;;;;;;;22.85;9.98;;;;;;;9.05;100.00;100452.00;5030958;28;20112;-67
2022/12/23 06:43:02;;;;;;;23.02;10.18;;;;;;;9.03;100.00;100455.88;5048838;28;20049;-67
2022/12/23 06:45:27;;;;;;;24.50;9.90;;;;;;;9.05;100.00;100457.31;5048855;28;20574;-68
2022/12/23 06:47:52;;;;;;;27.30;12.35;;;;;;;9.04;100.00;100469.00;5048800;28;20025;-67
2022/12/23 06:50:18;;;;;;;25.23;10.82;;;;;;;9.05;100.00;100472.47;5048726;28;20032;-68
2022/12/23 06:52:44;;;;;;;23.20;9.20;;;;;;;9.02;100.00;100471.00;5048700;28;20112;-67
2022/12/23 06:55:10;;;;;;;23.60;9.73;;;;;;;9.04;100.00;100476.13;5049789;28;20124;-68
2022/12/23 06:57:35;;;;;;;25.90;10.07;;;;;;;9.04;100.00;100476.13;5052580;28;20041;-67
2022/12/23 07:00:02;;;;;;;26.48;10.77;;;;;;;9.03;100.00;100479.81;5034709;28;20040;-68
2022/12/23 07:02:27;;;;;;;25.05;10.73;;;;;;;9.04;100.00;100506.22;5052547;28;20029;-67
2022/12/23 07:04:53;;;;;;;25.08;10.55;;;;;;;9.03;100.00;100504.56;5052385;28;20099;-68
2022/12/23 07:07:18;;;;;;;23.80;11.13;;;;;;;9.04;100.00;100524.00;5052391;28;20086;-67
2022/12/23 07:09:43;;;;;;;23.88;10.57;;;;;;;9.01;100.00;100519.91;5034355;28;20501;-68
2022/12/23 07:12:09;;;;;;;28.13;10.70;;;;;;;9.03;100.00;100539.16;5052442;28;20080;-68
2022/12/23 07:14:34;;;;;;;22.63;10.30;;;;;;;9.03;100.00;100547.13;5052185;28;20029;-68
2022/12/23 07:16:59;;;;;;;23.02;10.20;;;;;;;9.01;100.00;100543.84;5052281;28;20098;-68
2022/12/23 07:19:25;;;;;;;25.60;12.35;;;;;;;9.01;100.00;100541.19;5052043;28;20029;-68
2022/12/23 07:21:50;;;;;;;26.10;11.27;;;;;;;9.01;100.00;100535.84;5052193;28;20024;-68
2022/12/23 07:24:15;;;;;;;25.85;11.15;;;;;;;9.02;100.00;100523.41;5051884;28;20032;-68
2022/12/23 07:26:41;;;;;;;28.08;11.38;;;;;;;9.02;100.00;100515.44;5051970;28;20053;-67
2022/12/23 07:29:06;;;;;;;26.35;12.27;;;;;;;9.03;100.00;100514.41;5051973;28;20155;-67
2022/12/23 07:31:32;;;;;;;24.55;11.15;;;;;;;9.03;100.00;100527.69;5051948;28;20090;-68
2022/12/23 07:33:57;;;;;;;23.77;10.40;;;;;;;8.96;100.00;100517.84;5051855;28;20047;-68
2022/12/23 07:36:22;;;;;;;29.10;11.30;;;;;;;8.99;100.00;100520.09;5051909;28;20029;-68
2022/12/23 07:38:50;;;;;;;26.77;12.10;;;;;;;8.98;100.00;100520.28;5051960;28;20087;-67
2022/12/23 07:41:15;;;;;;;28.05;11.05;;;;;;;9.00;100.00;100511.09;5051698;28;20100;-67
2022/12/23 07:43:41;;;;;;;26.48;11.70;;;;;;;9.00;100.00;100515.59;5051801;28;20461;-67
2022/12/23 07:46:08;;;;;;;27.52;10.73;;;;;;;8.98;100.00;100515.78;5034093;28;20560;-68
2022/12/23 07:48:33;;;;;;;33.65;13.02;;;;;;;9.02;100.00;100510.09;5051674;28;20067;-68
2022/12/23 07:51:03;;;;;;;30.15;12.48;;;;;;;8.99;100.00;100509.47;5051744;28;20056;-68
2022/12/23 07:53:29;;;;;;;28.88;12.55;;;;;;;9.00;100.00;100504.97;5051580;28;20036;-68
2022/12/23 07:55:54;;;;;;;26.33;11.40;;;;;;;9.02;100.00;100507.44;5051601;28;20083;-68
2022/12/23 07:58:20;;;;;;;23.45;10.68;;;;;;;8.99;100.00;100501.50;5051594;28;20056;-68
2022/12/23 08:00:45;;;;;;;30.10;12.45;;;;;;;9.02;100.00;100504.78;5051487;28;20101;-68
2022/12/23 08:03:11;;;;;;;30.38;12.57;;;;;;;9.00;100.00;100499.66;5051435;28;20395;-68
2022/12/23 08:05:36;;;;;;;30.13;14.57;;;;;;;9.02;100.00;100504.78;5051430;28;20044;-68
2022/12/23 08:08:02;;;;;;;30.25;14.70;;;;;;;8.97;100.00;100497.38;5050140;28;20036;-67
2022/12/23 08:10:28;;;;;;;32.13;14.35;;;;;;;9.04;100.00;100508.91;5051251;28;20481;-67
2022/12/23 08:12:53;;;;;;;33.63;14.35;;;;;;;9.02;100.00;100497.63;5033376;28;20040;-68
2022/12/23 08:15:19;;;;;;;30.00;15.60;;;;;;;9.04;100.00;100503.56;5050712;28;20498;-67
2022/12/23 08:17:44;;;;;;;41.10;15.00;;;;;;;9.03;100.00;100504.56;5033243;28;20024;-67
2022/12/23 08:20:10;;;;;;;28.55;15.45;;;;;;;9.03;100.00;100506.41;5051074;28;20190;-67
2022/12/23 08:22:35;;;;;;;30.15;15.73;;;;;;;9.05;100.00;100491.09;5051254;28;20039;-67
2022/12/23 08:25:01;;;;;;;36.17;17.27;;;;;;;9.05;100.00;100477.78;5051142;28;20028;-67
2022/12/23 08:27:26;;;;;;;36.92;16.00;;;;;;;9.03;100.00;100470.00;5033364;28;20041;-67
2022/12/23 08:29:52;;;;;;;31.50;16.00;;;;;;;9.06;100.00;100482.91;5051117;28;20052;-67
2022/12/23 08:32:17;;;;;;;38.22;18.52;;;;;;;9.02;100.00;100476.34;5033068;28;20051;-67
2022/12/23 08:34:42;;;;;;;36.60;17.52;;;;;;;9.06;100.00;100477.56;5051030;28;20061;-68
2022/12/23 08:37:08;;;;;;;35.55;15.88;;;;;;;9.07;100.00;100478.41;5048323;28;20651;-67
2022/12/23 08:39:33;;;;;;;37.30;18.08;;;;;;;9.06;100.00;100477.56;5044263;28;20029;-68
2022/12/23 08:41:59;;;;;;;41.47;18.13;;;;;;;9.03;100.00;100477.16;5045049;28;20393;-68
2022/12/23 08:44:26;;;;;;;43.65;18.85;;;;;;;9.07;100.00;100486.41;5045348;28;20190;-68
2022/12/23 08:46:53;;;;;;;33.60;15.30;;;;;;;9.05;100.00;100483.91;5045094;28;20126;-67
2022/12/23 08:49:18;;;;;;;37.65;17.52;;;;;;;9.02;100.00;100491.47;5044803;28;20742;-67
2022/12/23 08:51:44;;;;;;;35.90;15.68;;;;;;;9.00;100.00;100475.72;5045045;28;20033;-67
2022/12/23 08:54:09;;;;;;;34.45;15.77;;;;;;;9.01;100.00;100466.69;5044820;28;20476;-65
2022/12/23 08:56:39;;;;;;;34.60;16.50;;;;;;;9.05;100.00;100478.59;5045021;28;20079;-66
2022/12/23 08:59:05;;;;;;;35.90;15.82;;;;;;;9.05;100.00;100467.97;5044808;28;20075;-67
2022/12/23 09:01:32;;;;;;;32.67;15.50;;;;;;;9.05;100.00;100459.97;5044899;28;20028;-67
2022/12/23 09:04:01;;;;;;;35.53;14.35;;;;;;;9.05;100.00;100451.19;5044511;28;20028;-67
2022/12/23 09:06:30;;;;;;;33.78;14.45;;;;;;;9.03;100.00;100446.06;5026977;28;20040;-66
2022/12/23 09:08:56;;;;;;;32.50;14.32;;;;;;;8.97;100.00;100438.88;5044182;28;20435;-67
2022/12/23 09:11:25;;;;;;;29.33;15.40;;;;;;;9.03;100.00;100459.34;5044544;28;20028;-67
2022/12/23 09:13:51;;;;;;;31.58;13.35;;;;;;;9.01;100.00;100450.75;5044757;28;20391;-67
2022/12/23 09:16:17;;;;;;;30.15;13.95;;;;;;;9.05;100.00;100448.53;5044191;28;20044;-67
2022/12/23 09:18:42;;;;;;;32.15;13.90;;;;;;;9.03;100.00;100443.38;5044179;28;20403;-67
2022/12/23 09:21:14;;;;;;;31.10;12.20;;;;;;;9.07;100.00;100449.16;5044570;28;20033;-67
2022/12/23 09:23:40;;;;;;;34.90;14.48;;;;;;;9.03;100.00;100440.72;5047004;28;20057;-67
2022/12/23 09:26:07;;;;;;;30.67;14.85;;;;;;;9.05;100.00;100432.56;5050067;28;20907;-67
2022/12/23 09:28:32;;;;;;;28.70;12.40;;;;;;;9.10;100.00;100435.47;5050000;28;20032;-67
2022/12/23 09:31:05;;;;;;;29.27;13.68;;;;;;;9.10;100.00;100424.81;5049881;28;20029;-67
2022/12/23 09:33:31;;;;;;;29.50;13.43;;;;;;;9.03;100.00;100413.31;5050065;28;20029;-68
2022/12/23 09:35:59;;;;;;;28.20;12.38;;;;;;;9.06;100.00;100411.06;5049901;28;20064;-67
2022/12/23 09:38:25;;;;;;;32.25;14.35;;;;;;;9.09;100.00;100412.50;5031935;28;20391;-67
2022/12/23 09:40:50;;;;;;;26.35;11.55;;;;;;;9.10;100.00;100409.66;5049886;28;20040;-67
2022/12/23 09:43:15;;;;;;;26.25;13.77;;;;;;;9.10;100.00;100403.53;5064246;28;20102;-74
2022/12/23 09:46:08;;;;;;;29.70;13.18;;;;;;;9.10;100.00;100400.88;5069527;28;20020;-74
2022/12/23 09:48:46;;;;;;;28.20;11.93;;;;;;;9.06;100.00;100395.09;5051314;28;20028;-74
2022/12/23 09:51:13;;;;;;;27.45;12.20;;;;;;;9.04;100.00;100396.31;5069297;28;20020;-74
2022/12/23 09:54:07;;;;;;;26.33;11.85;;;;;;;9.06;100.00;100392.44;5069066;28;20033;-74
2022/12/23 09:56:44;;;;;;;26.50;10.60;;;;;;;9.09;100.00;100383.25;5068637;28;20036;-74
2022/12/23 09:59:26;;;;;;;26.83;10.07;;;;;;;9.10;100.00;100384.91;5069280;28;20043;-73
2022/12/23 10:02:29;;;;;;;23.40;9.05;;;;;;;9.10;100.00;100374.28;5069057;28;20036;-74
2022/12/23 10:05:19;;;;;;;27.25;9.27;;;;;;;9.13;100.00;100384.50;5050025;28;20025;-75
2022/12/23 10:07:51;;;;;;;24.83;10.65;;;;;;;9.11;100.00;100390.00;5067388;28;20112;-75
2022/12/23 10:10:21;;;;;;;23.42;9.63;;;;;;;9.07;100.00;100380.00;5069100;28;20051;-75
2022/12/23 10:12:51;;;;;;;29.65;10.00;;;;;;;9.12;100.00;100391.69;5066773;28;20051;-74
2022/12/23 10:15:22;;;;;;;22.92;9.52;;;;;;;9.12;100.00;100381.03;5049847;28;20044;-74
2022/12/23 10:17:51;;;;;;;21.50;10.13;;;;;;;9.14;100.00;100384.31;5064645;28;20032;-74
2022/12/23 10:20:27;;;;;;;24.65;9.88;;;;;;;9.13;100.00;100380.00;5068940;28;20036;-74
2022/12/23 10:22:55;;;;;;;23.80;10.32;;;;;;;9.11;100.00;100368.72;5068866;28;20051;-73
2022/12/23 10:25:47;;;;;;;23.15;9.40;;;;;;;9.15;100.00;100364.66;5068816;28;20062;-73
2022/12/23 10:28:13;;;;;;;19.42;8.00;;;;;;;9.11;100.00;100358.09;5069060;28;20483;-74
2022/12/23 10:30:41;;;;;;;22.92;8.82;;;;;;;9.08;100.00;100350.50;5070805;28;20032;-74
2022/12/23 10:33:21;;;;;;;21.23;8.73;;;;;;;9.08;100.00;100345.19;5072758;28;20115;-74
2022/12/23 10:35:46;;;;;;;25.00;9.48;;;;;;;9.11;100.00;100346.63;5067194;28;20037;-75
2022/12/23 10:38:46;;;;;;;20.58;8.07;;;;;;;9.11;100.00;100336.81;5073009;28;20077;-73
2022/12/23 10:41:14;;;;;;;23.77;8.75;;;;;;;9.13;100.00;100331.31;5072770;28;20514;-74
2022/12/23 10:44:03;;;;;;;20.08;9.10;;;;;;;9.16;100.00;100336.22;5061018;28;20394;-73
2022/12/23 10:46:41;;;;;;;18.42;7.80;;;;;;;9.18;100.00;100337.66;5035916;28;20104;-74
2022/12/23 10:49:28;;;;;;;21.52;6.68;;;;;;;9.17;100.00;100341.34;5053559;28;20032;-67
2022/12/23 10:51:59;;;;;;;17.55;7.05;;;;;;;9.18;100.00;100316.38;5053458;28;20043;-68
2022/12/23 10:54:34;;;;;;;21.03;7.33;;;;;;;9.21;100.00;100305.31;5053380;28;20487;-68
2022/12/23 10:57:01;;;;;;;20.27;8.48;;;;;;;9.22;100.00;100308.81;5053332;28;20276;-68
2022/12/23 10:59:29;;;;;;;23.42;10.02;;;;;;;9.23;100.00;100304.31;5053250;28;20032;-68
2022/12/23 11:02:10;;;;;;;24.05;10.93;;;;;;;9.31;100.00;100299.63;5053324;28;20048;-68
2022/12/23 11:04:41;;;;;;;25.45;14.98;;;;;;;9.30;100.00;100303.31;5053258;28;20472;-67
2022/12/23 11:07:17;;;;;;;24.85;15.00;;;;;;;9.29;100.00;100290.19;5053278;28;20083;-68
2022/12/23 11:09:46;;;;;;;25.30;12.82;;;;;;;9.26;100.00;100285.28;5053177;28;20036;-68
2022/12/23 11:12:13;;;;;;;19.92;8.23;;;;;;;9.21;100.00;100268.06;5053468;28;20163;-68
2022/12/23 11:14:50;;;;;;;19.17;8.52;;;;;;;9.23;100.00;100269.72;5053070;28;20134;-68
2022/12/23 11:17:24;;;;;;;18.83;7.13;;;;;;;9.19;100.00;100256.81;5052935;28;20111;-67
2022/12/23 11:20:16;;;;;;;16.95;6.50;;;;;;;9.24;100.00;100258.88;5052896;28;20440;-68
2022/12/23 11:22:52;;;;;;;;;;;;;;;9.27;100.00;100252.31;5053397;28;20032;-67
2022/12/23 11:25:32;;;;;;;17.02;6.13;;;;;;;9.25;100.00;100252.53;5052560;28;19912;-68
2022/12/23 11:28:09;;;;;;;17.70;6.38;;;;;;;9.25;100.00;100257.03;5052837;28;20052;-68
2022/12/23 11:30:45;;;;;;;18.85;6.90;;;;;;;9.16;100.00;100240.44;5052728;28;20033;-68
2022/12/23 11:33:26;;;;;;;17.58;6.78;;;;;;;9.17;100.00;100245.56;5052727;28;20032;-68
2022/12/23 11:36:06;;;;;;;14.43;6.05;;;;;;;9.15;100.00;100239.63;5052724;28;20025;-68
2022/12/23 11:38:34;;;;;;;15.30;5.78;;;;;;;9.13;100.00;100233.69;5071695;28;20025;-68
2022/12/23 11:41:00;;;;;;;17.92;6.32;;;;;;;9.12;100.00;100229.41;5053108;28;20032;-68
2022/12/23 11:43:27;;;;;;;17.30;7.30;;;;;;;9.10;100.00;100230.63;5051578;28;20055;-68
2022/12/23 11:46:15;;;;;;;12.30;6.07;;;;;;;9.11;100.00;100222.41;5043607;28;20035;-68
2022/12/23 11:48:41;;;;;;;17.10;6.53;;;;;;;9.09;100.00;100221.81;5051545;28;20036;-68
2022/12/23 11:51:06;;;;;;;15.07;6.32;;;;;;;9.06;100.00;100214.22;5051567;28;20032;-68